createdAt,value
2022-10-01T00:01:45.482Z,6.38
2022-10-01T00:11:47.678Z,3.65
2022-10-01T00:21:49.850Z,4.05
2022-10-01T00:31:52.061Z,7.40
2022-10-01T00:41:54.805Z,3.25
2022-10-01T00:52:02.368Z,5.80
2022-10-01T01:02:04.767Z,3.90
2022-10-01T01:12:25.858Z,4.90
2022-10-01T01:22:33.702Z,3.80
2022-10-01T01:32:48.129Z,4.97
2022-10-01T01:42:51.663Z,6.70
2022-10-01T01:52:54.528Z,6.45
2022-10-01T02:02:57.931Z,5.75
2022-10-01T02:13:22.326Z,9.57
2022-10-01T02:23:30.312Z,6.93
2022-10-01T02:33:36.357Z,4.80
2022-10-01T02:43:54.480Z,5.57
2022-10-01T02:54:03.379Z,8.10
2022-10-01T03:04:05.495Z,5.65
2022-10-01T03:14:07.720Z,4.93
2022-10-01T03:24:10.051Z,6.07
2022-10-01T03:34:13.481Z,5.75
2022-10-01T03:44:15.699Z,6.07
2022-10-01T03:54:18.129Z,10.05
2022-10-01T04:04:20.453Z,11.25
2022-10-01T04:14:22.552Z,9.43
2022-10-01T04:24:24.643Z,8.70
2022-10-01T04:34:46.787Z,9.98
2022-10-01T04:44:48.911Z,11.63
2022-10-01T04:54:52.471Z,9.52
2022-10-01T05:04:54.695Z,15.80
2022-10-01T05:14:57.163Z,24.63
2022-10-01T05:25:00.471Z,19.27
2022-10-01T05:35:03.462Z,19.02
2022-10-01T05:45:05.979Z,14.85
2022-10-01T05:55:08.617Z,15.35
2022-10-01T06:05:10.694Z,17.50
2022-10-01T06:15:13.432Z,21.33
2022-10-01T06:25:15.797Z,23.42
2022-10-01T06:35:17.991Z,24.67
2022-10-01T06:45:20.150Z,27.35
2022-10-01T06:55:26.347Z,66.18
2022-10-01T07:05:28.523Z,43.30
2022-10-01T07:15:31.391Z,45.63
2022-10-01T07:25:33.614Z,43.38
2022-10-01T07:35:38.289Z,77.22
2022-10-01T07:45:40.491Z,38.72
2022-10-01T07:55:42.864Z,28.33
2022-10-01T08:05:46.577Z,18.92
2022-10-01T08:15:53.760Z,29.98
2022-10-01T08:26:09.137Z,26.58
2022-10-01T08:36:11.408Z,18.50
2022-10-01T08:46:18.276Z,7.05
2022-10-01T08:56:37.685Z,3.55
2022-10-01T09:06:40.136Z,6.95
2022-10-01T09:16:54.474Z,4.80
2022-10-01T09:26:57.145Z,6.22
2022-10-01T09:37:28.065Z,7.75
2022-10-01T09:47:33.113Z,6.18
2022-10-01T09:57:43.398Z,5.82
2022-10-01T10:08:30.123Z,4.72
2022-10-01T10:18:35.728Z,8.20
2022-10-01T10:28:44.617Z,4.00
2022-10-01T10:38:53.838Z,5.00
2022-10-01T10:49:04.899Z,4.25
2022-10-01T10:59:10.223Z,4.97
2022-10-01T11:09:18.702Z,3.83
2022-10-01T11:19:29.777Z,3.55
2022-10-01T11:29:50.819Z,5.25
2022-10-01T11:39:56.288Z,4.68
2022-10-01T11:50:13.515Z,4.90
2022-10-01T12:00:16.084Z,3.17
2022-10-01T12:10:18.152Z,5.30
2022-10-01T12:20:30.143Z,5.60
2022-10-01T12:30:42.051Z,4.10
2022-10-01T12:40:56.458Z,3.25
2022-10-01T12:51:33.517Z,4.80
2022-10-01T13:02:12.827Z,3.45
2022-10-01T13:13:02.485Z,3.35
2022-10-01T13:23:11.686Z,5.47
2022-10-01T13:33:24.120Z,2.28
2022-10-01T13:43:26.352Z,9.77
2022-10-01T13:53:30.225Z,1.75
2022-10-01T14:03:34.581Z,6.95
2022-10-01T14:14:04.524Z,0.98
2022-10-01T14:24:24.684Z,3.55
2022-10-01T14:34:42.496Z,10.93
2022-10-01T14:44:47.076Z,1.40
2022-10-01T14:54:58.565Z,7.93
2022-10-01T15:05:00.815Z,2.10
2022-10-01T15:15:03.088Z,0.50
2022-10-01T15:25:05.829Z,0.70
2022-10-01T15:35:13.464Z,0.68
2022-10-01T15:45:26.055Z,10.50
2022-10-01T15:55:42.353Z,5.63
2022-10-01T16:05:48.939Z,7.00
2022-10-01T16:16:19.061Z,3.25
2022-10-01T16:26:29.329Z,9.95
2022-10-01T16:36:34.476Z,17.83
2022-10-01T16:46:36.830Z,6.07
2022-10-01T16:56:41.501Z,3.58
2022-10-01T17:06:43.876Z,4.93
2022-10-01T17:16:46.136Z,3.65
2022-10-01T17:26:48.452Z,3.53
2022-10-01T17:36:50.740Z,2.08
2022-10-01T17:46:52.819Z,5.45
2022-10-01T17:56:55.481Z,2.08
2022-10-01T18:06:59.834Z,4.18
2022-10-01T18:17:02.113Z,3.03
2022-10-01T18:27:04.197Z,1.30
2022-10-01T18:37:07.360Z,1.98
2022-10-01T18:47:17.852Z,3.75
2022-10-01T18:57:30.511Z,2.17
2022-10-01T19:07:50.991Z,1.60
2022-10-01T19:18:02.162Z,1.55
2022-10-01T19:28:15.729Z,1.92
2022-10-01T19:38:34.987Z,3.28
2022-10-01T19:48:49.089Z,3.25
2022-10-01T19:58:51.170Z,1.77
2022-10-01T20:09:20.761Z,2.90
2022-10-01T20:19:49.530Z,1.95
2022-10-01T20:40:19.009Z,2.65
2022-10-01T20:50:26.543Z,2.80
2022-10-01T21:00:31.245Z,4.20
2022-10-01T21:10:45.151Z,1.50
2022-10-01T21:20:57.733Z,1.65
2022-10-01T21:31:08.579Z,2.55
2022-10-01T21:41:16.398Z,1.30
2022-10-01T21:51:35.923Z,0.87
2022-10-01T22:02:10.722Z,2.03
2022-10-01T22:12:13.005Z,2.67
2022-10-01T22:22:25.870Z,2.90
2022-10-01T22:32:30.947Z,1.92
2022-10-01T22:42:37.069Z,2.40
2022-10-01T22:52:42.205Z,1.08
2022-10-01T23:03:06.124Z,2.95
2022-10-01T23:13:37.065Z,2.63
2022-10-01T23:23:42.168Z,3.83
2022-10-01T23:34:09.092Z,0.90
2022-10-01T23:44:36.616Z,1.10
2022-10-01T23:54:46.142Z,1.58
